sensor_id;sensor_type;location;lat;lon;timestamp;pressure;altitude;pressure_sealevel;temperature;humidity
33454;BME280;39400;49.744;7.012;2023-01-09T00:00:50;94075.88;;;4.51;100.00
33454;BME280;39400;49.744;7.012;2023-01-09T00:03:16;94083.53;;;4.63;100.00
33454;BME280;39400;49.744;7.012;2023-01-09T00:05:42;94088.63;;;4.61;100.00
33454;BME280;39400;49.744;7.012;2023-01-09T00:08:07;94089.88;;;4.46;100.00
33454;BME280;39400;49.744;7.012;2023-01-09T00:10:32;94085.56;;;4.52;100.00
33454;BME280;39400;49.744;7.012;2023-01-09T00:12:58;94087.09;;;4.57;100.00
33454;BME280;39400;49.744;7.012;2023-01-09T00:15:23;94089.84;;;4.53;100.00
33454;BME280;39400;49.744;7.012;2023-01-09T00:17:49;94097.22;;;4.52;100.00
33454;BME280;39400;49.744;7.012;2023-01-09T00:20:14;94089.34;;;4.65;100.00
33454;BME280;39400;49.744;7.012;2023-01-09T00:22:40;94088.66;;;4.58;100.00
33454;BME280;39400;49.744;7.012;2023-01-09T00:25:06;94090.94;;;4.59;100.00
33454;BME280;39400;49.744;7.012;2023-01-09T00:27:35;94090.94;;;4.59;100.00
33454;BME280;39400;49.744;7.012;2023-01-09T00:30:00;94076.16;;;4.60;100.00
33454;BME280;39400;49.744;7.012;2023-01-09T00:32:27;94081.59;;;4.60;100.00
33454;BME280;39400;49.744;7.012;2023-01-09T00:34:53;94083.94;;;4.62;100.00
33454;BME280;39400;49.744;7.012;2023-01-09T00:37:19;94076.97;;;4.61;100.00
33454;BME280;39400;49.744;7.012;2023-01-09T00:39:44;94082.50;;;4.43;100.00
33454;BME280;39400;49.744;7.012;2023-01-09T00:42:12;94077.88;;;4.40;100.00
33454;BME280;39400;49.744;7.012;2023-01-09T00:44:43;94086.38;;;4.49;100.00
33454;BME280;39400;49.744;7.012;2023-01-09T00:47:13;94075.88;;;4.47;100.00
33454;BME280;39400;49.744;7.012;2023-01-09T00:49:41;94082.91;;;4.45;100.00
33454;BME280;39400;49.744;7.012;2023-01-09T00:52:09;94079.78;;;4.43;100.00
33454;BME280;39400;49.744;7.012;2023-01-09T00:54:38;94084.91;;;4.37;100.00
33454;BME280;39400;49.744;7.012;2023-01-09T00:57:03;94084.97;;;4.26;100.00
33454;BME280;39400;49.744;7.012;2023-01-09T00:59:29;94082.25;;;4.26;100.00
33454;BME280;39400;49.744;7.012;2023-01-09T01:01:54;94095.09;;;4.22;100.00
33454;BME280;39400;49.744;7.012;2023-01-09T01:04:19;94097.44;;;4.20;100.00
33454;BME280;39400;49.744;7.012;2023-01-09T01:06:45;94091.16;;;4.31;100.00
33454;BME280;39400;49.744;7.012;2023-01-09T01:09:10;94084.16;;;4.33;100.00
33454;BME280;39400;49.744;7.012;2023-01-09T01:11:35;94089.63;;;4.26;100.00
33454;BME280;39400;49.744;7.012;2023-01-09T01:14:01;94092.75;;;4.24;100.00
33454;BME280;39400;49.744;7.012;2023-01-09T01:16:26;94096.19;;;4.32;100.00
33454;BME280;39400;49.744;7.012;2023-01-09T01:18:51;94088.44;;;4.31;100.00
33454;BME280;39400;49.744;7.012;2023-01-09T01:21:17;94087.22;;;4.39;100.00
33454;BME280;39400;49.744;7.012;2023-01-09T01:23:43;94096.56;;;4.38;100.00
33454;BME280;39400;49.744;7.012;2023-01-09T01:26:11;94082.50;;;4.43;100.00
33454;BME280;39400;49.744;7.012;2023-01-09T01:28:37;94083.31;;;4.40;100.00
33454;BME280;39400;49.744;7.012;2023-01-09T01:31:03;94096.13;;;4.43;100.00
33454;BME280;39400;49.744;7.012;2023-01-09T01:33:29;94091.06;;;4.45;100.00
33454;BME280;39400;49.744;7.012;2023-01-09T01:36:05;94101.16;;;4.48;100.00
33454;BME280;39400;49.744;7.012;2023-01-09T01:38:31;94104.97;;;4.58;100.00
33454;BME280;39400;49.744;7.012;2023-01-09T01:40:57;94087.91;;;4.50;100.00
33454;BME280;39400;49.744;7.012;2023-01-09T01:43:23;94100.31;;;4.58;100.00
33454;BME280;39400;49.744;7.012;2023-01-09T01:45:48;94102.63;;;4.56;100.00
33454;BME280;39400;49.744;7.012;2023-01-09T01:48:17;94104.94;;;4.61;100.00
33454;BME280;39400;49.744;7.012;2023-01-09T01:50:45;94116.22;;;4.60;100.00
33454;BME280;39400;49.744;7.012;2023-01-09T01:58:33;94137.72;;;4.47;100.00
33454;BME280;39400;49.744;7.012;2023-01-09T02:01:01;94143.16;;;4.40;100.00
33454;BME280;39400;49.744;7.012;2023-01-09T02:03:27;94151.75;;;4.35;100.00
33454;BME280;39400;49.744;7.012;2023-01-09T02:05:53;94151.34;;;4.36;100.00
33454;BME280;39400;49.744;7.012;2023-01-09T02:08:18;94150.19;;;4.41;100.00
33454;BME280;39400;49.744;7.012;2023-01-09T02:10:45;94144.78;;;4.34;100.00
33454;BME280;39400;49.744;7.012;2023-01-09T02:13:12;94155.63;;;4.41;100.00
33454;BME280;39400;49.744;7.012;2023-01-09T02:18:37;94151.00;;;4.31;100.00
33454;BME280;39400;49.744;7.012;2023-01-09T02:32:06;94171.22;;;4.33;100.00
33454;BME280;39400;49.744;7.012;2023-01-09T02:37:07;94166.53;;;4.37;100.00
33454;BME280;39400;49.744;7.012;2023-01-09T02:39:56;94184.41;;;4.35;100.00
33454;BME280;39400;49.744;7.012;2023-01-09T02:42:26;94191.88;;;4.23;100.00
33454;BME280;39400;49.744;7.012;2023-01-09T02:44:52;94189.13;;;4.27;100.00
33454;BME280;39400;49.744;7.012;2023-01-09T02:49:55;94184.06;;;4.25;100.00
33454;BME280;39400;49.744;7.012;2023-01-09T02:57:56;94189.94;;;4.20;100.00
33454;BME280;39400;49.744;7.012;2023-01-09T03:02:55;94200.78;;;4.27;100.00
33454;BME280;39400;49.744;7.012;2023-01-09T03:05:30;94210.19;;;4.12;100.00
33454;BME280;39400;49.744;7.012;2023-01-09T03:08:01;94194.59;;;4.20;100.00
33454;BME280;39400;49.744;7.012;2023-01-09T03:10:36;94197.69;;;4.18;100.00
33454;BME280;39400;49.744;7.012;2023-01-09T03:13:04;94205.13;;;4.11;100.00
33454;BME280;39400;49.744;7.012;2023-01-09T03:15:35;94214.03;;;4.11;100.00
33454;BME280;39400;49.744;7.012;2023-01-09T03:18:03;94210.19;;;4.05;100.00
33454;BME280;39400;49.744;7.012;2023-01-09T03:20:30;94216.41;;;4.05;100.00
33454;BME280;39400;49.744;7.012;2023-01-09T03:22:58;94230.41;;;4.04;100.00
33454;BME280;39400;49.744;7.012;2023-01-09T03:25:25;94235.84;;;4.04;100.00
33454;BME280;39400;49.744;7.012;2023-01-09T03:27:55;94240.56;;;3.86;100.00
33454;BME280;39400;49.744;7.012;2023-01-09T03:30:21;94237.44;;;3.84;100.00
33454;BME280;39400;49.744;7.012;2023-01-09T03:32:46;94246.38;;;3.80;100.00
33454;BME280;39400;49.744;7.012;2023-01-09T03:35:11;94247.56;;;3.72;100.00
33454;BME280;39400;49.744;7.012;2023-01-09T03:37:37;94254.97;;;3.68;100.00
33454;BME280;39400;49.744;7.012;2023-01-09T03:40:02;94254.56;;;3.59;100.00
33454;BME280;39400;49.744;7.012;2023-01-09T03:42:28;94256.13;;;3.53;100.00
33454;BME280;39400;49.744;7.012;2023-01-09T03:44:53;94271.66;;;3.49;100.00
33454;BME280;39400;49.744;7.012;2023-01-09T03:47:18;94251.47;;;3.43;100.00
33454;BME280;39400;49.744;7.012;2023-01-09T03:49:44;94263.91;;;3.44;100.00
33454;BME280;39400;49.744;7.012;2023-01-09T03:52:09;94259.25;;;3.30;100.00
33454;BME280;39400;49.744;7.012;2023-01-09T03:54:34;94257.69;;;3.22;100.00
33454;BME280;39400;49.744;7.012;2023-01-09T03:57:00;94261.56;;;3.21;100.00
33454;BME280;39400;49.744;7.012;2023-01-09T03:59:25;94266.22;;;3.17;100.00
33454;BME280;39400;49.744;7.012;2023-01-09T04:01:51;94270.91;;;3.16;100.00
33454;BME280;39400;49.744;7.012;2023-01-09T04:04:16;94270.13;;;3.16;100.00
33454;BME280;39400;49.744;7.012;2023-01-09T04:06:41;94273.22;;;3.18;100.00
33454;BME280;39400;49.744;7.012;2023-01-09T04:09:06;94273.97;;;3.18;100.00
33454;BME280;39400;49.744;7.012;2023-01-09T04:11:32;94267.41;;;3.26;100.00
33454;BME280;39400;49.744;7.012;2023-01-09T04:13:57;94279.81;;;3.27;100.00
33454;BME280;39400;49.744;7.012;2023-01-09T04:16:22;94285.66;;;3.29;100.00
33454;BME280;39400;49.744;7.012;2023-01-09T04:18:48;94285.66;;;3.26;100.00
33454;BME280;39400;49.744;7.012;2023-01-09T04:21:13;94283.31;;;3.24;100.00
33454;BME280;39400;49.744;7.012;2023-01-09T04:23:38;94280.22;;;3.19;100.00
33454;BME280;39400;49.744;7.012;2023-01-09T04:26:04;94269.31;;;3.12;100.00
33454;BME280;39400;49.744;7.012;2023-01-09T04:28:29;94269.31;;;3.08;100.00
33454;BME280;39400;49.744;7.012;2023-01-09T04:30:54;94269.31;;;3.04;100.00
33454;BME280;39400;49.744;7.012;2023-01-09T04:33:20;94271.66;;;3.06;100.00
33454;BME280;39400;49.744;7.012;2023-01-09T04:35:45;94275.53;;;3.05;100.00
33454;BME280;39400;49.744;7.012;2023-01-09T04:38:10;94275.16;;;3.03;100.00
33454;BME280;39400;49.744;7.012;2023-01-09T04:40:36;94277.09;;;3.09;100.00
33454;BME280;39400;49.744;7.012;2023-01-09T04:43:01;94287.56;;;3.11;100.00
33454;BME280;39400;49.744;7.012;2023-01-09T04:45:26;94293.38;;;3.13;100.00
33454;BME280;39400;49.744;7.012;2023-01-09T04:47:52;94284.84;;;3.18;100.00
33454;BME280;39400;49.744;7.012;2023-01-09T04:50:17;94279.81;;;3.24;100.00
33454;BME280;39400;49.744;7.012;2023-01-09T04:52:42;94288.72;;;3.24;100.00
33454;BME280;39400;49.744;7.012;2023-01-09T04:55:08;94287.56;;;3.22;100.00
33454;BME280;39400;49.744;7.012;2023-01-09T04:57:34;94304.66;;;3.22;100.00
33454;BME280;39400;49.744;7.012;2023-01-09T04:59:59;94312.81;;;3.26;100.00
33454;BME280;39400;49.744;7.012;2023-01-09T05:02:25;94311.25;;;3.28;100.00
33454;BME280;39400;49.744;7.012;2023-01-09T05:04:50;94329.09;;;3.22;100.00
33454;BME280;39400;49.744;7.012;2023-01-09T05:07:15;94328.31;;;3.25;100.00
33454;BME280;39400;49.744;7.012;2023-01-09T05:09:41;94331.41;;;3.27;100.00
33454;BME280;39400;49.744;7.012;2023-01-09T05:12:06;94331.81;;;3.29;100.00
33454;BME280;39400;49.744;7.012;2023-01-09T05:14:32;94326.00;;;3.31;100.00
33454;BME280;39400;49.744;7.012;2023-01-09T05:16:57;94340.75;;;3.26;100.00
33454;BME280;39400;49.744;7.012;2023-01-09T05:19:22;94337.63;;;3.17;100.00
33454;BME280;39400;49.744;7.012;2023-01-09T05:21:47;94348.47;;;3.21;100.00
33454;BME280;39400;49.744;7.012;2023-01-09T05:24:13;94341.50;;;3.16;100.00
33454;BME280;39400;49.744;7.012;2023-01-09T05:26:38;94355.09;;;3.23;100.00
33454;BME280;39400;49.744;7.012;2023-01-09T05:29:04;94347.72;;;3.20;100.00
33454;BME280;39400;49.744;7.012;2023-01-09T05:31:29;94353.91;;;3.17;100.00
33454;BME280;39400;49.744;7.012;2023-01-09T05:33:54;94354.69;;;3.21;100.00
33454;BME280;39400;49.744;7.012;2023-01-09T05:36:20;94346.16;;;3.23;100.00
33454;BME280;39400;49.744;7.012;2023-01-09T05:38:45;94348.88;;;3.19;100.00
33454;BME280;39400;49.744;7.012;2023-01-09T05:41:10;94360.88;;;3.11;100.00
33454;BME280;39400;49.744;7.012;2023-01-09T05:43:36;94348.06;;;3.15;100.00
33454;BME280;39400;49.744;7.012;2023-01-09T05:46:01;94363.22;;;3.23;100.00
33454;BME280;39400;49.744;7.012;2023-01-09T05:48:26;94357.81;;;3.23;100.00
33454;BME280;39400;49.744;7.012;2023-01-09T05:50:52;94355.09;;;3.23;100.00
33454;BME280;39400;49.744;7.012;2023-01-09T05:53:17;94357.81;;;3.27;100.00
33454;BME280;39400;49.744;7.012;2023-01-09T05:55:43;94353.91;;;3.17;100.00
33454;BME280;39400;49.744;7.012;2023-01-09T05:58:08;94373.34;;;3.26;100.00
33454;BME280;39400;49.744;7.012;2023-01-09T06:00:33;94367.13;;;3.22;100.00
33454;BME280;39400;49.744;7.012;2023-01-09T06:02:58;94369.44;;;3.20;100.00
33454;BME280;39400;49.744;7.012;2023-01-09T06:05:24;94368.66;;;3.23;100.00
33454;BME280;39400;49.744;7.012;2023-01-09T06:07:49;94366.31;;;3.22;100.00
33454;BME280;39400;49.744;7.012;2023-01-09T06:10:15;94365.53;;;3.14;100.00
33454;BME280;39400;49.744;7.012;2023-01-09T06:12:41;94374.84;;;3.13;100.00
33454;BME280;39400;49.744;7.012;2023-01-09T06:15:10;94376.78;;;3.13;100.00
33454;BME280;39400;49.744;7.012;2023-01-09T06:17:35;94374.84;;;3.13;100.00
33454;BME280;39400;49.744;7.012;2023-01-09T06:20:01;94378.75;;;3.16;100.00
33454;BME280;39400;49.744;7.012;2023-01-09T06:22:26;94374.84;;;3.17;100.00
33454;BME280;39400;49.744;7.012;2023-01-09T06:24:52;94379.50;;;3.16;100.00
33454;BME280;39400;49.744;7.012;2023-01-09T06:27:17;94369.84;;;3.26;100.00
33454;BME280;39400;49.744;7.012;2023-01-09T06:29:42;94376.41;;;3.25;100.00
33454;BME280;39400;49.744;7.012;2023-01-09T06:32:07;94381.47;;;3.30;100.00
33454;BME280;39400;49.744;7.012;2023-01-09T06:34:33;94372.94;;;3.24;100.00
33454;BME280;39400;49.744;7.012;2023-01-09T06:36:58;94375.66;;;3.28;100.00
33454;BME280;39400;49.744;7.012;2023-01-09T06:39:23;94380.31;;;3.31;100.00
33454;BME280;39400;49.744;7.012;2023-01-09T06:41:49;94393.50;;;3.32;100.00
33454;BME280;39400;49.744;7.012;2023-01-09T06:44:14;94395.44;;;3.28;100.00
33454;BME280;39400;49.744;7.012;2023-01-09T06:46:39;94394.31;;;3.37;100.00
33454;BME280;39400;49.744;7.012;2023-01-09T06:49:05;94402.06;;;3.34;100.00
33454;BME280;39400;49.744;7.012;2023-01-09T06:51:30;94393.91;;;3.34;100.00
33454;BME280;39400;49.744;7.012;2023-01-09T06:53:55;94408.25;;;3.39;100.00
33454;BME280;39400;49.744;7.012;2023-01-09T06:56:21;94395.06;;;3.33;100.00
33454;BME280;39400;49.744;7.012;2023-01-09T06:58:46;94415.63;;;3.31;100.00
33454;BME280;39400;49.744;7.012;2023-01-09T07:01:11;94417.56;;;3.34;100.00
33454;BME280;39400;49.744;7.012;2023-01-09T07:03:37;94419.53;;;3.33;100.00
33454;BME280;39400;49.744;7.012;2023-01-09T07:06:02;94421.06;;;3.34;100.00
33454;BME280;39400;49.744;7.012;2023-01-09T07:08:28;94423.81;;;3.42;100.00
33454;BME280;39400;49.744;7.012;2023-01-09T07:10:53;94423.41;;;3.36;100.00
33454;BME280;39400;49.744;7.012;2023-01-09T07:13:19;94428.03;;;3.28;100.00
33454;BME280;39400;49.744;7.012;2023-01-09T07:15:44;94425.31;;;3.28;100.00
33454;BME280;39400;49.744;7.012;2023-01-09T07:18:09;94419.53;;;3.33;100.00
33454;BME280;39400;49.744;7.012;2023-01-09T07:20:35;94431.94;;;3.34;100.00
33454;BME280;39400;49.744;7.012;2023-01-09T07:23:02;94428.84;;;3.40;100.00
33454;BME280;39400;49.744;7.012;2023-01-09T07:25:27;94425.31;;;3.28;100.00
33454;BME280;39400;49.744;7.012;2023-01-09T07:27:52;94423.00;;;3.34;100.00
33454;BME280;39400;49.744;7.012;2023-01-09T07:30:18;94424.19;;;3.44;100.00
33454;BME280;39400;49.744;7.012;2023-01-09T07:32:43;94420.72;;;3.43;100.00
33454;BME280;39400;49.744;7.012;2023-01-09T07:35:09;94416.44;;;3.46;100.00
33454;BME280;39400;49.744;7.012;2023-01-09T07:37:35;94417.59;;;3.48;100.00
33454;BME280;39400;49.744;7.012;2023-01-09T07:40:00;94424.19;;;3.44;100.00
33454;BME280;39400;49.744;7.012;2023-01-09T07:42:26;94421.47;;;3.44;100.00
33454;BME280;39400;49.744;7.012;2023-01-09T07:44:51;94429.25;;;3.49;100.00
33454;BME280;39400;49.744;7.012;2023-01-09T07:47:17;94430.78;;;3.43;100.00
33454;BME280;39400;49.744;7.012;2023-01-09T07:49:42;94429.25;;;3.45;100.00
33454;BME280;39400;49.744;7.012;2023-01-09T07:52:08;94437.78;;;3.44;100.00
33454;BME280;39400;49.744;7.012;2023-01-09T07:54:33;94440.88;;;3.46;100.00
33454;BME280;39400;49.744;7.012;2023-01-09T07:56:58;94450.97;;;3.45;100.00
33454;BME280;39400;49.744;7.012;2023-01-09T07:59:24;94441.69;;;3.53;100.00
33454;BME280;39400;49.744;7.012;2023-01-09T08:01:49;94445.94;;;3.51;100.00
33454;BME280;39400;49.744;7.012;2023-01-09T08:04:14;94448.66;;;3.51;100.00
33454;BME280;39400;49.744;7.012;2023-01-09T08:06:39;94438.97;;;3.50;100.00
33454;BME280;39400;49.744;7.012;2023-01-09T08:09:05;94450.63;;;3.54;100.00
33454;BME280;39400;49.744;7.012;2023-01-09T08:11:30;94449.44;;;3.55;100.00
33454;BME280;39400;49.744;7.012;2023-01-09T08:13:55;94449.44;;;3.55;100.00
33454;BME280;39400;49.744;7.012;2023-01-09T08:16:21;94451.00;;;3.56;100.00
33454;BME280;39400;49.744;7.012;2023-01-09T08:18:46;94454.50;;;3.60;100.00
33454;BME280;39400;49.744;7.012;2023-01-09T08:21:11;94458.00;;;3.64;100.00
33454;BME280;39400;49.744;7.012;2023-01-09T08:23:37;94456.84;;;3.58;100.00
33454;BME280;39400;49.744;7.012;2023-01-09T08:26:03;94459.13;;;3.52;100.00
33454;BME280;39400;49.744;7.012;2023-01-09T08:28:28;94447.91;;;3.54;100.00
33454;BME280;39400;49.744;7.012;2023-01-09T08:30:53;94452.94;;;3.55;100.00
33454;BME280;39400;49.744;7.012;2023-01-09T08:33:19;94458.00;;;3.53;100.00
33454;BME280;39400;49.744;7.012;2023-01-09T08:35:44;94459.53;;;3.54;100.00
33454;BME280;39400;49.744;7.012;2023-01-09T08:38:10;94468.88;;;3.57;100.00
33454;BME280;39400;49.744;7.012;2023-01-09T08:40:35;94468.06;;;3.53;100.00
33454;BME280;39400;49.744;7.012;2023-01-09T08:43:01;94475.06;;;3.54;100.00
33454;BME280;39400;49.744;7.012;2023-01-09T08:45:26;94475.09;;;3.61;100.00
33454;BME280;39400;49.744;7.012;2023-01-09T08:47:52;94468.88;;;3.64;100.00
33454;BME280;39400;49.744;7.012;2023-01-09T08:50:17;94469.25;;;3.66;100.00
33454;BME280;39400;49.744;7.012;2023-01-09T08:52:43;94471.22;;;3.66;100.00
33454;BME280;39400;49.744;7.012;2023-01-09T08:55:08;94475.09;;;3.61;100.00
33454;BME280;39400;49.744;7.012;2023-01-09T08:57:34;94469.66;;;3.65;100.00
33454;BME280;39400;49.744;7.012;2023-01-09T08:59:59;94476.63;;;3.58;100.00
33454;BME280;39400;49.744;7.012;2023-01-09T09:02:24;94463.47;;;3.71;100.00
33454;BME280;39400;49.744;7.012;2023-01-09T09:04:50;94487.53;;;3.80;100.00
33454;BME280;39400;49.744;7.012;2023-01-09T09:07:15;94471.22;;;3.76;100.00
33454;BME280;39400;49.744;7.012;2023-01-09T09:09:40;94474.34;;;3.78;100.00
33454;BME280;39400;49.744;7.012;2023-01-09T09:12:06;94473.56;;;3.81;100.00
33454;BME280;39400;49.744;7.012;2023-01-09T09:14:31;94479.78;;;3.86;100.00
33454;BME280;39400;49.744;7.012;2023-01-09T09:16:56;94468.91;;;3.86;100.00
33454;BME280;39400;49.744;7.012;2023-01-09T09:19:22;94463.06;;;3.84;100.00
33454;BME280;39400;49.744;7.012;2023-01-09T09:21:47;94466.19;;;3.78;100.00
33454;BME280;39400;49.744;7.012;2023-01-09T09:24:12;94469.69;;;3.75;100.00
33454;BME280;39400;49.744;7.012;2023-01-09T09:26:38;94472.78;;;3.77;100.00
33454;BME280;39400;49.744;7.012;2023-01-09T09:29:03;94468.50;;;3.76;100.00
33454;BME280;39400;49.744;7.012;2023-01-09T09:31:28;94484.03;;;3.72;100.00
33454;BME280;39400;49.744;7.012;2023-01-09T09:33:55;94479.00;;;3.81;100.00
33454;BME280;39400;49.744;7.012;2023-01-09T09:36:20;94487.53;;;3.84;100.00
33454;BME280;39400;49.744;7.012;2023-01-09T09:38:45;94482.88;;;3.80;100.00
33454;BME280;39400;49.744;7.012;2023-01-09T09:44:07;94494.91;;;3.79;100.00
33454;BME280;39400;49.744;7.012;2023-01-09T09:46:43;94498.06;;;3.89;100.00
33454;BME280;39400;49.744;7.012;2023-01-09T09:49:20;94492.22;;;3.83;100.00
33454;BME280;39400;49.744;7.012;2023-01-09T09:52:04;94506.22;;;3.89;100.00
33454;BME280;39400;49.744;7.012;2023-01-09T09:54:40;94498.81;;;3.82;100.00
33454;BME280;39400;49.744;7.012;2023-01-09T09:57:11;94500.78;;;3.89;100.00
33454;BME280;39400;49.744;7.012;2023-01-09T09:59:39;94485.22;;;3.78;100.00
33454;BME280;39400;49.744;7.012;2023-01-09T10:02:13;94498.41;;;3.84;100.00
33454;BME280;39400;49.744;7.012;2023-01-09T10:04:50;94506.19;;;3.78;100.00
33454;BME280;39400;49.744;7.012;2023-01-09T10:07:22;94511.63;;;3.81;100.00
33454;BME280;39400;49.744;7.012;2023-01-09T10:09:56;94513.94;;;3.79;100.00
33454;BME280;39400;49.744;7.012;2023-01-09T10:12:49;94508.50;;;3.76;100.00
33454;BME280;39400;49.744;7.012;2023-01-09T10:15:28;94513.97;;;3.87;100.00
33454;BME280;39400;49.744;7.012;2023-01-09T10:26:11;94525.59;;;3.76;100.00
33454;BME280;39400;49.744;7.012;2023-01-09T10:39:34;94499.16;;;3.66;100.00
33454;BME280;39400;49.744;7.012;2023-01-09T10:42:06;94505.38;;;3.77;100.00
33454;BME280;39400;49.744;7.012;2023-01-09T10:44:36;94507.34;;;3.77;100.00
33454;BME280;39400;49.744;7.012;2023-01-09T10:47:15;94509.28;;;3.73;100.00
33454;BME280;39400;49.744;7.012;2023-01-09T10:49:42;94516.66;;;3.79;100.00
33454;BME280;39400;49.744;7.012;2023-01-09T10:52:12;94520.16;;;3.76;100.00
33454;BME280;39400;49.744;7.012;2023-01-09T10:54:45;94498.41;;;3.76;100.00
33454;BME280;39400;49.744;7.012;2023-01-09T10:57:17;94513.94;;;3.72;100.00
33454;BME280;39400;49.744;7.012;2023-01-09T10:59:43;94524.81;;;3.79;100.00
33454;BME280;39400;49.744;7.012;2023-01-09T11:02:29;94518.94;;;3.63;100.00
33454;BME280;39400;49.744;7.012;2023-01-09T11:04:56;94533.34;;;3.67;100.00
33454;BME280;39400;49.744;7.012;2023-01-09T11:07:28;94534.16;;;3.86;100.00
33454;BME280;39400;49.744;7.012;2023-01-09T11:09:58;94527.91;;;3.67;100.00
33454;BME280;39400;49.744;7.012;2023-01-09T11:12:27;94532.56;;;3.70;100.00
33454;BME280;39400;49.744;7.012;2023-01-09T11:14:53;94534.53;;;3.88;100.00
33454;BME280;39400;49.744;7.012;2023-01-09T11:17:21;94526.78;;;3.90;100.00
33454;BME280;39400;49.744;7.012;2023-01-09T11:20:13;94531.06;;;3.98;100.00
33454;BME280;39400;49.744;7.012;2023-01-09T11:22:48;94527.22;;;4.13;100.00
33454;BME280;39400;49.744;7.012;2023-01-09T11:25:19;94545.84;;;3.97;100.00
33454;BME280;39400;49.744;7.012;2023-01-09T11:28:05;94527.19;;;3.92;100.00
33454;BME280;39400;49.744;7.012;2023-01-09T11:30:35;94526.78;;;3.90;100.00
33454;BME280;39400;49.744;7.012;2023-01-09T11:33:17;94545.47;;;4.02;100.00
33454;BME280;39400;49.744;7.012;2023-01-09T11:35:59;94536.91;;;3.89;100.00
33454;BME280;39400;49.744;7.012;2023-01-09T11:38:26;94534.19;;;4.07;100.00
33454;BME280;39400;49.744;7.012;2023-01-09T11:40:55;94540.41;;;3.97;100.00
33454;BME280;39400;49.744;7.012;2023-01-09T11:45:57;94544.72;;;4.16;100.00
33454;BME280;39400;49.744;7.012;2023-01-09T11:51:01;94536.56;;;4.16;100.00
33454;BME280;39400;49.744;7.012;2023-01-09T11:53:28;94530.31;;;4.22;100.00
33454;BME280;39400;49.744;7.012;2023-01-09T11:55:59;94532.69;;;4.31;100.00
33454;BME280;39400;49.744;7.012;2023-01-09T11:58:33;94515.16;;;4.07;100.00
33454;BME280;39400;49.744;7.012;2023-01-09T12:01:36;94516.34;;;4.06;100.00
33454;BME280;39400;49.744;7.012;2023-01-09T12:04:14;94525.63;;;4.05;100.00
33454;BME280;39400;49.744;7.012;2023-01-09T12:06:53;94506.25;;;4.21;100.00
33454;BME280;39400;49.744;7.012;2023-01-09T12:20:41;94517.13;;;4.24;100.00
33454;BME280;39400;49.744;7.012;2023-01-09T12:23:22;94507.78;;;4.25;100.00
33454;BME280;39400;49.744;7.012;2023-01-09T12:36:52;94527.78;;;5.49;100.00
33454;BME280;39400;49.744;7.012;2023-01-09T12:39:50;94517.47;;;4.87;100.00
33454;BME280;39400;49.744;7.012;2023-01-09T12:50:37;94523.72;;;4.05;100.00
33454;BME280;39400;49.744;7.012;2023-01-09T12:53:23;94558.25;;;3.98;100.00
33454;BME280;39400;49.744;7.012;2023-01-09T12:55:54;94541.16;;;3.94;100.00
33454;BME280;39400;49.744;7.012;2023-01-09T12:58:46;94532.63;;;3.85;100.00
33454;BME280;39400;49.744;7.012;2023-01-09T13:01:18;94541.09;;;3.69;100.00
33454;BME280;39400;49.744;7.012;2023-01-09T13:03:53;94546.53;;;3.65;100.00
33454;BME280;39400;49.744;7.012;2023-01-09T13:06:22;94549.66;;;3.71;100.00
33454;BME280;39400;49.744;7.012;2023-01-09T13:09:05;94548.88;;;3.77;100.00
33454;BME280;39400;49.744;7.012;2023-01-09T13:11:36;94545.00;;;3.64;100.00
33454;BME280;39400;49.744;7.012;2023-01-09T13:14:21;94552.75;;;3.69;100.00
33454;BME280;39400;49.744;7.012;2023-01-09T13:16:52;94555.09;;;3.67;100.00
33454;BME280;39400;49.744;7.012;2023-01-09T13:19:30;94561.28;;;3.64;100.00
33454;BME280;39400;49.744;7.012;2023-01-09T13:21:58;94569.84;;;3.73;100.00
33454;BME280;39400;49.744;7.012;2023-01-09T13:24:36;94560.53;;;3.71;100.00
33454;BME280;39400;49.744;7.012;2023-01-09T13:27:10;94563.31;;;3.85;100.00
33454;BME280;39400;49.744;7.012;2023-01-09T13:29:46;94560.63;;;4.10;100.00
33454;BME280;39400;49.744;7.012;2023-01-09T13:34:45;94561.78;;;3.98;100.00
33454;BME280;39400;49.744;7.012;2023-01-09T13:37:32;94559.44;;;3.93;100.00
33454;BME280;39400;49.744;7.012;2023-01-09T13:40:01;94565.28;;;4.06;100.00
33454;BME280;39400;49.744;7.012;2023-01-09T13:42:28;94552.47;;;4.14;100.00
33454;BME280;39400;49.744;7.012;2023-01-09T13:44:55;94562.59;;;4.13;100.00
33454;BME280;39400;49.744;7.012;2023-01-09T13:47:32;94555.19;;;4.17;100.00
33454;BME280;39400;49.744;7.012;2023-01-09T13:59:48;94574.56;;;3.98;100.00
33454;BME280;39400;49.744;7.012;2023-01-09T14:05:02;94597.06;;;3.88;100.00
33454;BME280;39400;49.744;7.012;2023-01-09T14:07:30;94595.53;;;3.87;100.00
33454;BME280;39400;49.744;7.012;2023-01-09T14:10:34;94603.31;;;3.92;100.00
33454;BME280;39400;49.744;7.012;2023-01-09T14:13:07;94609.47;;;3.74;100.00
33454;BME280;39400;49.744;7.012;2023-01-09T14:15:41;94611.41;;;3.77;100.00
33454;BME280;39400;49.744;7.012;2023-01-09T14:18:25;94623.44;;;3.69;100.00
33454;BME280;39400;49.744;7.012;2023-01-09T14:21:02;94621.09;;;3.64;100.00
33454;BME280;39400;49.744;7.012;2023-01-09T14:23:46;94628.84;;;3.66;100.00
33454;BME280;39400;49.744;7.012;2023-01-09T14:26:45;94645.84;;;3.52;100.00
33454;BME280;39400;49.744;7.012;2023-01-09T14:31:52;94652.88;;;3.60;100.00
33454;BME280;39400;49.744;7.012;2023-01-09T14:34:26;94662.13;;;3.45;100.00
33454;BME280;39400;49.744;7.012;2023-01-09T14:36:56;94670.66;;;3.43;100.00
33454;BME280;39400;49.744;7.012;2023-01-09T14:39:23;94676.09;;;3.40;100.00
33454;BME280;39400;49.744;7.012;2023-01-09T14:41:55;94680.34;;;3.41;100.00
33454;BME280;39400;49.744;7.012;2023-01-09T14:44:51;94685.34;;;3.35;100.00
33454;BME280;39400;49.744;7.012;2023-01-09T14:50:05;94717.00;;;3.13;100.00
33454;BME280;39400;49.744;7.012;2023-01-09T14:52:37;94720.47;;;3.10;100.00
33454;BME280;39400;49.744;7.012;2023-01-09T14:55:24;94716.13;;;2.98;100.00
33454;BME280;39400;49.744;7.012;2023-01-09T14:57:50;94742.53;;;3.01;100.00